Terminal Aerodrome Forecast
Issued by NWS

Home | Current Version | Previous Version | Graphics & Text | Print | Product List | Glossary On
Versions: 1 2 3 4 5 6 7 8 9 10 11 12 13 14 15 16 17
000
FTUS43 KICT 250520
TAFSLN
TAF
KSLN 250520Z 2506/2606 11005KT P6SM OVC200
     FM251100 01005KT P6SM OVC100
     FM251400 03007KT 4SM BR OVC008
     FM251700 04017G25KT P6SM SCT015 OVC130
     FM252000 03022G30KT P6SM VCSH BKN035 OVC080=

USA.gov is the U.S. government's official web portal to all federal, state and local government web resources and services.